createdAt,value
2023-02-27T00:00:17.267Z,1.01
2023-02-27T00:03:20.583Z,1.00
2023-02-27T00:06:24.371Z,0.95
2023-02-27T00:09:27.889Z,0.89
2023-02-27T00:12:31.989Z,0.92
2023-02-27T00:15:35.616Z,0.94
2023-02-27T00:18:37.952Z,0.90
2023-02-27T00:21:41.439Z,0.84
2023-02-27T00:24:47.067Z,0.84
2023-02-27T00:27:51.032Z,0.88
2023-02-27T00:30:55.359Z,0.86
2023-02-27T00:33:58.302Z,0.82
2023-02-27T00:37:01.198Z,0.75
2023-02-27T00:40:09.303Z,0.73
2023-02-27T00:43:16.523Z,0.69
2023-02-27T00:46:20.396Z,0.62
2023-02-27T00:49:25.382Z,0.64
2023-02-27T00:52:29.100Z,0.58
2023-02-27T00:55:34.121Z,0.56
2023-02-27T00:58:41.050Z,0.55
2023-02-27T01:01:46.597Z,0.51
2023-02-27T01:04:49.434Z,0.45
2023-02-27T01:07:52.890Z,0.44
2023-02-27T01:10:56.222Z,0.40
2023-02-27T01:14:07.650Z,0.42
2023-02-27T01:17:16.796Z,0.34
2023-02-27T01:20:27.890Z,0.37
2023-02-27T01:23:32.666Z,0.37
2023-02-27T01:26:41.676Z,0.37
2023-02-27T01:30:00.896Z,0.40
2023-02-27T01:33:04.319Z,0.43
2023-02-27T01:36:13.449Z,0.39
2023-02-27T01:39:18.696Z,0.41
2023-02-27T01:42:35.086Z,0.43
2023-02-27T01:45:46.947Z,0.50
2023-02-27T01:48:50.774Z,0.52
2023-02-27T01:52:06.433Z,0.52
2023-02-27T01:55:13.457Z,0.58
2023-02-27T01:58:21.282Z,0.59
2023-02-27T02:01:27.997Z,0.60
2023-02-27T02:04:40.148Z,0.63
2023-02-27T02:07:50.612Z,0.64
2023-02-27T02:11:06.290Z,0.66
2023-02-27T02:14:19.218Z,0.65
2023-02-27T02:17:27.122Z,0.69
2023-02-27T02:21:00.208Z,0.75
2023-02-27T02:24:18.773Z,0.79
2023-02-27T02:27:28.108Z,0.73
2023-02-27T02:30:37.122Z,0.72
2023-02-27T02:34:04.073Z,0.72
2023-02-27T02:37:41.042Z,0.78
2023-02-27T02:41:09.357Z,0.75
2023-02-27T02:44:27.905Z,0.75
2023-02-27T02:47:34.401Z,0.74
2023-02-27T02:50:43.314Z,0.76
2023-02-27T02:54:00.118Z,0.76
2023-02-27T02:57:17.841Z,0.76
2023-02-27T03:00:25.114Z,0.73
2023-02-27T03:03:28.817Z,0.75
2023-02-27T03:06:38.795Z,0.78
2023-02-27T03:09:54.673Z,0.78
2023-02-27T03:13:00.936Z,0.76
2023-02-27T03:16:14.577Z,0.76
2023-02-27T03:19:42.255Z,0.76
2023-02-27T03:22:49.662Z,0.82
2023-02-27T03:26:03.679Z,0.75
2023-02-27T03:29:23.725Z,0.80
2023-02-27T03:32:37.335Z,0.81
2023-02-27T03:35:58.444Z,0.83
2023-02-27T03:39:14.206Z,0.80
2023-02-27T03:42:35.119Z,0.82
2023-02-27T03:45:45.675Z,0.86
2023-02-27T03:48:48.566Z,0.85
2023-02-27T03:51:58.791Z,0.90
2023-02-27T03:55:13.704Z,0.91
2023-02-27T03:58:22.617Z,0.80
2023-02-27T04:01:27.073Z,0.88
2023-02-27T04:04:39.566Z,0.90
2023-02-27T04:07:45.804Z,0.85
2023-02-27T04:10:52.612Z,0.92
2023-02-27T04:14:03.685Z,0.90
2023-02-27T04:17:16.510Z,0.84
2023-02-27T04:20:41.780Z,0.90
2023-02-27T04:24:07.135Z,0.85
2023-02-27T04:27:10.615Z,0.90
2023-02-27T04:30:31.318Z,0.91
2023-02-27T04:33:47.758Z,0.88
2023-02-27T04:37:12.416Z,0.85
2023-02-27T04:40:38.855Z,0.89
2023-02-27T04:43:43.724Z,0.84
2023-02-27T04:46:49.098Z,0.86
2023-02-27T04:50:00.929Z,0.93
2023-02-27T04:53:08.628Z,0.90
2023-02-27T04:56:18.894Z,0.83
2023-02-27T04:59:49.109Z,0.80
2023-02-27T05:03:27.151Z,0.81
2023-02-27T05:06:36.572Z,0.74
2023-02-27T05:09:54.407Z,0.71
2023-02-27T05:13:07.542Z,0.69
2023-02-27T05:16:21.007Z,0.65
2023-02-27T05:19:23.557Z,0.64
2023-02-27T05:22:52.977Z,0.72
2023-02-27T05:26:07.607Z,0.72
2023-02-27T05:29:16.967Z,0.74
2023-02-27T05:32:21.093Z,0.79
2023-02-27T05:35:55.781Z,0.83
2023-02-27T05:39:06.554Z,0.82
2023-02-27T05:42:21.844Z,0.86
2023-02-27T05:45:40.113Z,0.87
2023-02-27T05:48:49.353Z,0.88
2023-02-27T05:52:00.120Z,0.84
2023-02-27T05:55:07.601Z,0.80
2023-02-27T05:58:20.845Z,0.83
2023-02-27T06:01:31.871Z,0.82
2023-02-27T06:04:40.728Z,0.82
2023-02-27T06:07:44.316Z,0.90
2023-02-27T06:10:52.222Z,0.92
2023-02-27T06:14:00.647Z,0.96
2023-02-27T06:17:03.898Z,0.92
2023-02-27T06:20:16.448Z,0.88
2023-02-27T06:23:24.967Z,0.94
2023-02-27T06:29:51.690Z,1.01
2023-02-27T06:44:14.091Z,1.44
2023-02-27T06:58:45.844Z,1.81
2023-02-27T07:02:02.041Z,1.93
2023-02-27T07:05:51.423Z,1.67
2023-02-27T07:09:15.638Z,1.91
2023-02-27T07:12:20.548Z,1.95
2023-02-27T07:15:28.254Z,1.89
2023-02-27T07:18:54.097Z,1.95
2023-02-27T07:22:43.577Z,2.07
2023-02-27T07:25:48.689Z,2.04
2023-02-27T07:29:11.845Z,1.98
2023-02-27T07:32:17.116Z,1.98
2023-02-27T07:35:23.009Z,2.17
2023-02-27T07:38:25.355Z,2.20
2023-02-27T07:41:36.920Z,2.41
2023-02-27T07:44:41.186Z,2.38
2023-02-27T07:47:54.418Z,2.54
2023-02-27T07:51:07.623Z,2.94
2023-02-27T07:54:19.087Z,2.84
2023-02-27T07:57:25.676Z,2.86
2023-02-27T08:00:48.530Z,2.93
2023-02-27T08:04:03.094Z,2.81
2023-02-27T08:07:06.981Z,3.01
2023-02-27T08:10:09.487Z,3.37
2023-02-27T08:13:35.941Z,3.13
2023-02-27T08:16:46.409Z,3.01
2023-02-27T08:19:55.092Z,3.07
2023-02-27T08:23:06.621Z,3.26
2023-02-27T08:26:11.853Z,3.12
2023-02-27T08:29:21.988Z,3.11
2023-02-27T08:32:47.852Z,2.75
2023-02-27T08:36:01.881Z,2.90
2023-02-27T08:39:20.354Z,2.93
2023-02-27T08:42:24.213Z,3.13
2023-02-27T08:45:56.777Z,3.20
2023-02-27T08:48:59.305Z,2.94
2023-02-27T08:52:10.798Z,3.46
2023-02-27T08:55:15.142Z,3.47
2023-02-27T08:58:19.121Z,3.51
2023-02-27T09:01:36.131Z,3.59
2023-02-27T09:04:58.852Z,3.77
2023-02-27T09:08:05.372Z,3.83
2023-02-27T09:11:10.809Z,4.04
2023-02-27T09:14:22.416Z,4.15
2023-02-27T09:17:28.185Z,4.36
2023-02-27T09:20:48.917Z,4.54
2023-02-27T09:24:20.292Z,4.62
2023-02-27T09:27:30.075Z,4.43
2023-02-27T09:31:02.341Z,4.37
2023-02-27T09:34:26.455Z,4.47
2023-02-27T09:37:34.946Z,4.56
2023-02-27T09:40:47.067Z,4.37
2023-02-27T09:44:04.780Z,4.57
2023-02-27T09:50:43.049Z,4.68
2023-02-27T09:53:50.418Z,4.91
2023-02-27T09:56:56.249Z,5.00
2023-02-27T10:00:03.048Z,4.91
2023-02-27T10:03:26.847Z,5.21
2023-02-27T10:06:49.525Z,5.31
2023-02-27T10:10:02.331Z,5.23
2023-02-27T10:13:17.509Z,5.05
2023-02-27T10:16:23.016Z,5.50
2023-02-27T10:19:35.792Z,5.02
2023-02-27T10:22:43.161Z,4.88
2023-02-27T10:25:49.020Z,4.83
2023-02-27T10:28:53.665Z,5.28
2023-02-27T10:32:07.538Z,5.00
2023-02-27T10:35:30.692Z,5.47
2023-02-27T10:38:35.986Z,5.68
2023-02-27T10:41:41.675Z,5.30
2023-02-27T10:44:45.664Z,5.13
2023-02-27T10:47:49.138Z,5.04
2023-02-27T10:50:52.726Z,4.77
2023-02-27T10:54:15.262Z,4.73
2023-02-27T10:57:40.930Z,4.43
2023-02-27T11:00:48.693Z,4.85
2023-02-27T11:03:57.684Z,5.06
2023-02-27T11:07:03.419Z,5.60
2023-02-27T11:10:08.753Z,5.87
2023-02-27T11:13:21.912Z,5.61
2023-02-27T11:16:25.380Z,5.54
2023-02-27T11:19:36.717Z,5.28
2023-02-27T11:22:43.073Z,5.88
2023-02-27T11:25:47.142Z,5.71
2023-02-27T11:29:06.224Z,5.68
2023-02-27T11:32:16.363Z,5.22
2023-02-27T11:35:25.162Z,5.02
2023-02-27T11:38:30.034Z,4.92
2023-02-27T11:41:37.370Z,5.11
2023-02-27T11:44:51.589Z,5.22
2023-02-27T11:48:01.449Z,5.26
2023-02-27T11:51:15.178Z,5.06
2023-02-27T11:54:18.259Z,5.43
2023-02-27T11:57:23.117Z,5.66
2023-02-27T12:00:39.603Z,5.15
2023-02-27T12:03:54.003Z,5.83
2023-02-27T12:07:05.254Z,5.92
2023-02-27T12:10:15.297Z,6.25
2023-02-27T12:13:24.647Z,5.96
2023-02-27T12:16:55.059Z,6.24
2023-02-27T12:20:01.659Z,5.73
2023-02-27T12:23:10.355Z,5.97
2023-02-27T12:26:32.800Z,5.90
2023-02-27T12:29:39.476Z,5.95
2023-02-27T12:32:43.501Z,5.84
2023-02-27T12:35:50.487Z,5.59
2023-02-27T12:38:54.992Z,5.69
2023-02-27T12:42:09.468Z,6.01
2023-02-27T12:45:29.076Z,5.83
2023-02-27T12:48:31.977Z,5.68
2023-02-27T12:51:48.728Z,5.90
2023-02-27T12:55:02.795Z,6.16
2023-02-27T12:58:15.683Z,5.79
2023-02-27T13:01:42.658Z,6.09
2023-02-27T13:05:09.508Z,6.08
2023-02-27T13:08:29.994Z,5.84
2023-02-27T13:11:33.300Z,5.56
2023-02-27T13:14:36.366Z,5.44
2023-02-27T13:17:43.841Z,5.41
2023-02-27T13:20:57.935Z,4.96
2023-02-27T13:24:16.207Z,5.16
2023-02-27T13:27:19.369Z,5.22
2023-02-27T13:30:24.524Z,5.04
2023-02-27T13:33:34.079Z,5.25
2023-02-27T13:36:43.287Z,5.28
2023-02-27T13:39:53.268Z,5.59
2023-02-27T13:43:01.038Z,5.40
2023-02-27T13:46:22.674Z,5.32
2023-02-27T13:49:29.926Z,5.25
2023-02-27T13:52:39.534Z,5.25
2023-02-27T13:55:44.956Z,5.32
2023-02-27T13:58:48.225Z,5.32
2023-02-27T14:02:14.101Z,5.28
2023-02-27T14:05:18.280Z,4.97
2023-02-27T14:08:25.723Z,5.24
2023-02-27T14:11:35.009Z,5.31
2023-02-27T14:14:46.201Z,5.62
2023-02-27T14:17:54.405Z,5.62
2023-02-27T14:21:00.364Z,5.58
2023-02-27T14:24:03.301Z,5.46
2023-02-27T14:27:16.188Z,5.71
2023-02-27T14:30:36.496Z,5.58
2023-02-27T14:33:51.026Z,5.47
2023-02-27T14:37:01.298Z,5.55
2023-02-27T14:40:12.365Z,5.54
2023-02-27T14:43:30.915Z,5.23
2023-02-27T14:46:40.003Z,5.13
2023-02-27T14:49:43.637Z,5.25
2023-02-27T14:52:46.226Z,5.18
2023-02-27T14:55:59.040Z,5.24
2023-02-27T14:59:04.524Z,4.66
2023-02-27T15:02:32.044Z,4.85
2023-02-27T15:05:36.691Z,4.78
2023-02-27T15:08:45.259Z,4.55
2023-02-27T15:11:57.439Z,4.46
2023-02-27T15:15:12.626Z,4.54
2023-02-27T15:18:17.607Z,4.53
2023-02-27T15:21:23.948Z,4.45
2023-02-27T15:24:40.633Z,4.48
2023-02-27T15:27:53.510Z,4.53
2023-02-27T15:30:58.800Z,4.39
2023-02-27T15:34:04.700Z,4.40
2023-02-27T15:37:07.805Z,4.30
2023-02-27T15:40:19.119Z,4.29
2023-02-27T15:43:22.925Z,4.26
2023-02-27T15:46:32.196Z,4.28
2023-02-27T15:49:35.223Z,4.25
2023-02-27T15:52:49.890Z,4.22
2023-02-27T15:56:01.378Z,4.10
2023-02-27T15:59:04.791Z,3.98
2023-02-27T16:02:14.928Z,3.92
2023-02-27T16:05:24.667Z,3.90
2023-02-27T16:08:31.246Z,3.81
2023-02-27T16:11:38.833Z,3.73
2023-02-27T16:14:43.477Z,3.67
2023-02-27T16:18:09.400Z,3.64
2023-02-27T16:21:20.990Z,3.56
2023-02-27T16:24:32.433Z,3.46
2023-02-27T16:27:36.498Z,3.48
2023-02-27T16:30:39.184Z,3.36
2023-02-27T16:33:44.516Z,3.31
2023-02-27T16:37:00.957Z,3.20
2023-02-27T16:40:14.901Z,3.09
2023-02-27T16:43:21.249Z,3.10
2023-02-27T16:46:24.944Z,3.16
2023-02-27T16:49:29.567Z,3.14
2023-02-27T16:52:35.148Z,3.14
2023-02-27T16:55:44.514Z,3.17
2023-02-27T16:58:47.574Z,3.22
2023-02-27T17:01:50.638Z,3.24
2023-02-27T17:04:54.563Z,3.17
2023-02-27T17:07:57.355Z,3.09
2023-02-27T17:11:04.817Z,3.14
2023-02-27T17:14:10.309Z,3.06
2023-02-27T17:17:14.326Z,3.09
2023-02-27T17:20:17.073Z,3.12
2023-02-27T17:23:22.820Z,3.10
2023-02-27T17:26:29.331Z,2.98
2023-02-27T17:29:34.668Z,2.88
2023-02-27T17:32:40.247Z,2.78
2023-02-27T17:35:44.219Z,2.68
2023-02-27T17:38:50.137Z,2.58
2023-02-27T17:41:55.802Z,2.56
2023-02-27T17:44:59.702Z,2.48
2023-02-27T17:48:02.619Z,2.36
2023-02-27T17:51:06.540Z,2.25
2023-02-27T17:54:09.601Z,2.20
2023-02-27T17:57:14.329Z,2.19
2023-02-27T18:00:19.548Z,2.13
2023-02-27T18:03:23.152Z,2.06
2023-02-27T18:06:26.280Z,2.05
2023-02-27T18:09:29.074Z,1.92
2023-02-27T18:12:39.521Z,1.87
2023-02-27T18:15:42.229Z,1.78
2023-02-27T18:18:47.641Z,1.71
2023-02-27T18:21:53.700Z,1.63
2023-02-27T18:25:00.593Z,1.60
2023-02-27T18:28:05.616Z,1.63
2023-02-27T18:31:20.388Z,1.50
2023-02-27T18:34:25.157Z,1.72
2023-02-27T18:37:33.567Z,1.81
2023-02-27T18:40:41.337Z,1.70
2023-02-27T18:43:48.014Z,1.58
2023-02-27T18:46:51.736Z,1.51
2023-02-27T18:49:59.008Z,1.43
2023-02-27T18:53:02.612Z,1.46
2023-02-27T18:56:10.853Z,1.40
2023-02-27T18:59:14.507Z,1.26
2023-02-27T19:02:20.096Z,1.27
2023-02-27T19:05:25.518Z,1.17
2023-02-27T19:08:32.303Z,1.16
2023-02-27T19:11:35.899Z,1.05
2023-02-27T19:14:40.739Z,0.96
2023-02-27T19:17:44.449Z,0.85
2023-02-27T19:20:48.414Z,0.83
2023-02-27T19:23:52.026Z,0.79
2023-02-27T19:26:58.237Z,0.78
2023-02-27T19:30:06.338Z,0.77
2023-02-27T19:33:13.930Z,0.71
2023-02-27T19:36:18.984Z,0.63
2023-02-27T19:39:25.136Z,0.58
2023-02-27T19:42:30.600Z,0.53
2023-02-27T19:45:39.816Z,0.45
2023-02-27T19:48:53.965Z,0.45
2023-02-27T19:51:56.763Z,0.46
2023-02-27T19:55:01.365Z,0.54
2023-02-27T19:58:06.828Z,0.50
2023-02-27T20:01:15.055Z,0.55
2023-02-27T20:04:24.762Z,0.51
2023-02-27T20:07:30.755Z,0.62
2023-02-27T20:10:35.848Z,0.56
2023-02-27T20:13:41.532Z,0.45
2023-02-27T20:16:52.177Z,0.44
2023-02-27T20:19:57.962Z,0.39
2023-02-27T20:23:10.476Z,0.42
2023-02-27T20:26:20.585Z,0.46
2023-02-27T20:29:30.382Z,0.38
2023-02-27T20:32:36.462Z,0.42
2023-02-27T20:35:43.503Z,0.40
2023-02-27T20:38:49.952Z,0.33
2023-02-27T20:41:53.904Z,0.32
2023-02-27T20:44:57.714Z,0.33
2023-02-27T20:48:00.164Z,0.26
2023-02-27T20:51:13.021Z,0.18
2023-02-27T20:54:21.441Z,0.20
2023-02-27T20:57:26.488Z,0.19
2023-02-27T21:00:38.053Z,0.17
2023-02-27T21:03:42.392Z,0.19
2023-02-27T21:06:47.828Z,0.05
2023-02-27T21:09:52.864Z,0.05
2023-02-27T21:12:59.157Z,0.08
2023-02-27T21:16:05.655Z,0.09
2023-02-27T21:19:13.747Z,0.04
2023-02-27T21:26:18.737Z,-0.04
2023-02-27T21:29:22.272Z,-0.15
2023-02-27T21:32:25.647Z,-0.15
2023-02-27T21:35:29.089Z,-0.08
2023-02-27T21:38:32.563Z,-0.06
2023-02-27T21:41:43.583Z,-0.18
2023-02-27T21:44:53.299Z,-0.28
2023-02-27T21:47:57.816Z,-0.28
2023-02-27T21:51:05.845Z,-0.25
2023-02-27T21:54:15.283Z,-0.27
2023-02-27T21:57:24.836Z,-0.24
2023-02-27T22:00:34.798Z,-0.21
2023-02-27T22:03:39.074Z,-0.13
2023-02-27T22:06:41.853Z,-0.16
2023-02-27T22:09:56.971Z,-0.19
2023-02-27T22:13:02.796Z,-0.10
2023-02-27T22:16:09.735Z,-0.07
2023-02-27T22:19:15.046Z,0.03
2023-02-27T22:22:18.412Z,0.05
2023-02-27T22:25:28.081Z,0.05
2023-02-27T22:28:33.401Z,0.06
2023-02-27T22:31:39.219Z,0.03
2023-02-27T22:34:43.274Z,0.06
2023-02-27T22:38:04.690Z,0.16
2023-02-27T22:41:14.957Z,0.17
2023-02-27T22:44:20.714Z,0.10
2023-02-27T22:47:28.638Z,0.13
2023-02-27T22:50:30.992Z,0.15
2023-02-27T22:53:45.308Z,0.18
2023-02-27T22:56:58.015Z,0.14
2023-02-27T23:00:16.929Z,0.19
2023-02-27T23:03:20.830Z,0.22
2023-02-27T23:06:39.091Z,0.18
2023-02-27T23:09:49.294Z,0.18
2023-02-27T23:13:04.510Z,0.22
2023-02-27T23:16:14.058Z,0.21
2023-02-27T23:19:18.610Z,0.30
2023-02-27T23:22:29.675Z,0.29
2023-02-27T23:25:40.366Z,0.36
2023-02-27T23:28:58.079Z,0.32
2023-02-27T23:32:12.697Z,0.27
2023-02-27T23:35:20.425Z,0.29
2023-02-27T23:38:25.620Z,0.33
2023-02-27T23:41:31.307Z,0.33
2023-02-27T23:44:55.812Z,0.39
2023-02-27T23:47:59.417Z,0.43
2023-02-27T23:51:08.033Z,0.39
2023-02-27T23:54:14.838Z,0.46
2023-02-27T23:57:27.927Z,0.39
